Time,TemperatureF,DewpointF,PressureIn,WindDirection,WindDirectionDegrees,WindSpeedMPH,WindSpeedGustMPH,Humidity,HourlyPrecipIn,Conditions,Clouds,dailyrainin,SoftwareType,DateUTC
2013-09-17 00:08:00,45.7,39.0,30.35,SSE,159,3.0,8.0,77,0.00,,,0.02,weatherlink.com 1.10,2013-09-17 04:08:00,
2013-09-17 00:23:00,45.8,38.0,30.36,SSE,159,5.0,8.0,73,0.00,,,0.02,weatherlink.com 1.10,2013-09-17 04:23:00,
2013-09-17 00:38:00,45.7,37.0,30.36,South,182,0.0,7.0,73,0.00,,,0.02,weatherlink.com 1.10,2013-09-17 04:38:00,
2013-09-17 00:53:00,45.3,39.0,30.36,SSE,153,6.0,10.0,77,0.00,,,0.02,weatherlink.com 1.10,2013-09-17 04:53:00,
2013-09-17 01:08:00,44.8,39.0,30.36,South,180,4.0,10.0,81,0.00,,,0.02,weatherlink.com 1.10,2013-09-17 05:08:00,
2013-09-17 01:23:00,44.1,39.0,30.36,South,174,6.0,9.0,83,0.00,,,0.02,weatherlink.com 1.10,2013-09-17 05:23:00,
2013-09-17 01:38:00,43.9,40.0,30.36,South,169,4.0,9.0,85,0.00,,,0.02,weatherlink.com 1.10,2013-09-17 05:38:00,
2013-09-17 01:53:00,43.7,40.0,30.36,SE,144,4.0,9.0,86,0.00,,,0.02,weatherlink.com 1.10,2013-09-17 05:53:00,
2013-09-17 02:08:00,43.5,40.0,30.35,South,169,3.0,9.0,86,0.00,,,0.02,weatherlink.com 1.10,2013-09-17 06:08:00,
2013-09-17 02:23:00,43.5,40.0,30.36,South,188,7.0,8.0,87,0.00,,,0.02,weatherlink.com 1.10,2013-09-17 06:23:00,
2013-09-17 02:38:00,43.4,40.0,30.36,South,178,5.0,7.0,88,0.00,,,0.00,weatherlink.com 1.10,2013-09-17 06:38:00,
2013-09-17 02:53:00,43.7,41.0,30.35,South,173,8.0,8.0,89,0.00,,,0.00,weatherlink.com 1.10,2013-09-17 06:53:00,
2013-09-17 03:08:00,44.3,41.0,30.35,SSW,192,7.0,9.0,88,0.00,,,0.00,weatherlink.com 1.10,2013-09-17 07:08:00,
2013-09-17 03:23:00,44.8,41.0,30.35,South,184,4.0,7.0,87,0.00,,,0.00,weatherlink.com 1.10,2013-09-17 07:23:00,
2013-09-17 03:38:00,45.5,41.0,30.35,South,190,6.0,8.0,85,0.00,,,0.00,weatherlink.com 1.10,2013-09-17 07:38:00,
2013-09-17 03:53:00,45.6,41.0,30.35,South,187,7.0,8.0,84,0.00,,,0.00,weatherlink.com 1.10,2013-09-17 07:53:00,
2013-09-17 04:08:00,45.5,41.0,30.35,South,182,5.0,8.0,85,0.00,,,0.00,weatherlink.com 1.10,2013-09-17 08:08:00,
2013-09-17 04:23:00,44.9,41.0,30.35,South,177,4.0,7.0,87,0.00,,,0.00,weatherlink.com 1.10,2013-09-17 08:23:00,
2013-09-17 04:38:00,44.2,41.0,30.35,SSW,198,6.0,7.0,89,0.00,,,0.00,weatherlink.com 1.10,2013-09-17 08:38:00,
2013-09-17 04:53:00,44.2,41.0,30.36,South,188,8.0,8.0,87,0.00,,,0.00,weatherlink.com 1.10,2013-09-17 08:53:00,
2013-09-17 05:08:00,44.9,40.0,30.36,South,190,10.0,13.0,83,0.00,,,0.00,weatherlink.com 1.10,2013-09-17 09:08:00,
2013-09-17 05:23:00,44.1,40.0,30.36,SSW,203,5.0,10.0,85,0.00,,,0.00,weatherlink.com 1.10,2013-09-17 09:23:00,
2013-09-17 05:38:00,43.9,40.0,30.36,South,178,8.0,11.0,85,0.00,,,0.00,weatherlink.com 1.10,2013-09-17 09:38:00,
2013-09-17 05:53:00,44.0,40.0,30.36,South,190,9.0,13.0,85,0.00,,,0.00,weatherlink.com 1.10,2013-09-17 09:53:00,
2013-09-17 06:08:00,44.0,40.0,30.36,SSW,195,10.0,12.0,84,0.00,,,0.00,weatherlink.com 1.10,2013-09-17 10:08:00,
2013-09-17 06:23:00,44.4,40.0,30.36,SSW,201,7.0,13.0,84,0.00,,,0.00,weatherlink.com 1.10,2013-09-17 10:23:00,
2013-09-17 06:38:00,44.5,40.0,30.36,SSW,210,7.0,12.0,84,0.00,,,0.00,weatherlink.com 1.10,2013-09-17 10:38:00,
2013-09-17 06:53:00,44.6,40.0,30.36,SSW,202,10.0,11.0,85,0.00,,,0.00,weatherlink.com 1.10,2013-09-17 10:53:00,
2013-09-17 07:08:00,44.6,41.0,30.36,SSW,202,9.0,12.0,86,0.00,,,0.00,weatherlink.com 1.10,2013-09-17 11:08:00,
2013-09-17 07:23:00,44.6,41.0,30.36,SSW,194,7.0,11.0,88,0.00,,,0.00,weatherlink.com 1.10,2013-09-17 11:23:00,
2013-09-17 07:38:00,45.2,42.0,30.36,SSW,198,9.0,13.0,88,0.00,,,0.00,weatherlink.com 1.10,2013-09-17 11:38:00,
2013-09-17 07:53:00,45.4,42.0,30.36,SSW,200,7.0,11.0,88,0.00,,,0.00,weatherlink.com 1.10,2013-09-17 11:53:00,
2013-09-17 08:08:00,45.6,42.0,30.36,SSW,211,7.0,12.0,88,0.00,,,0.00,weatherlink.com 1.10,2013-09-17 12:08:00,
2013-09-17 08:23:00,46.2,43.0,30.36,SSW,210,8.0,12.0,88,0.00,,,0.00,weatherlink.com 1.10,2013-09-17 12:23:00,
2013-09-17 08:38:00,47.1,43.0,30.36,SW,219,8.0,12.0,86,0.00,,,0.00,weatherlink.com 1.10,2013-09-17 12:38:00,
2013-09-17 08:53:00,47.8,43.0,30.37,SSW,211,7.0,12.0,84,0.00,,,0.00,weatherlink.com 1.10,2013-09-17 12:53:00,
2013-09-17 09:09:00,48.6,44.0,30.37,SSW,192,7.0,12.0,83,0.00,,,0.00,weatherlink.com 1.10,2013-09-17 13:09:00,
2013-09-17 09:24:00,49.8,45.0,30.36,SSW,199,7.0,8.0,82,0.00,,,0.00,weatherlink.com 1.10,2013-09-17 13:24:00,
2013-09-17 09:39:00,51.1,45.0,30.36,SW,229,3.0,9.0,79,0.00,,,0.00,weatherlink.com 1.10,2013-09-17 13:39:00,
2013-09-17 09:54:00,52.1,45.0,30.36,SSW,211,5.0,10.0,76,0.00,,,0.00,weatherlink.com 1.10,2013-09-17 13:54:00,
2013-09-17 10:09:00,52.4,45.0,30.36,SW,227,8.0,13.0,76,0.00,,,0.00,weatherlink.com 1.10,2013-09-17 14:09:00,
2013-09-17 10:24:00,52.9,45.0,30.36,SSW,202,7.0,15.0,75,0.00,,,0.00,weatherlink.com 1.10,2013-09-17 14:24:00,
2013-09-17 10:39:00,53.3,45.0,30.35,SW,229,10.0,13.0,74,0.00,,,0.00,weatherlink.com 1.10,2013-09-17 14:39:00,
2013-09-17 10:54:00,54.8,46.0,30.35,SW,217,9.0,14.0,71,0.00,,,0.00,weatherlink.com 1.10,2013-09-17 14:54:00,
2013-09-17 11:09:00,55.3,46.0,30.35,SSW,196,11.0,15.0,72,0.00,,,0.00,weatherlink.com 1.10,2013-09-17 15:09:00,
2013-09-17 11:24:00,56.4,46.0,30.35,SW,234,8.0,15.0,69,0.00,,,0.00,weatherlink.com 1.10,2013-09-17 15:24:00,
2013-09-17 11:39:00,57.2,47.0,30.35,SW,236,4.0,12.0,68,0.00,,,0.00,weatherlink.com 1.10,2013-09-17 15:39:00,
2013-09-17 11:54:00,57.6,46.0,30.34,SW,227,6.0,14.0,66,0.00,,,0.00,weatherlink.com 1.10,2013-09-17 15:54:00,
2013-09-17 12:09:00,58.2,45.0,30.34,WSW,249,8.0,11.0,63,0.00,,,0.00,weatherlink.com 1.10,2013-09-17 16:09:00,
2013-09-17 12:24:00,59.3,47.0,30.34,SW,231,5.0,9.0,64,0.00,,,0.00,weatherlink.com 1.10,2013-09-17 16:24:00,
2013-09-17 12:39:00,59.1,45.0,30.33,West,267,8.0,12.0,61,0.00,,,0.00,weatherlink.com 1.10,2013-09-17 16:39:00,
2013-09-17 12:54:00,60.3,47.0,30.32,West,265,5.0,7.0,61,0.00,,,0.00,weatherlink.com 1.10,2013-09-17 16:54:00,
2013-09-17 13:09:00,59.4,44.0,30.32,SSW,198,7.0,14.0,58,0.00,,,0.00,weatherlink.com 1.10,2013-09-17 17:09:00,
2013-09-17 13:24:00,60.7,46.0,30.31,SSW,205,5.0,6.0,58,0.00,,,0.00,weatherlink.com 1.10,2013-09-17 17:24:00,
2013-09-17 13:39:00,61.2,45.0,30.30,SSE,164,5.0,8.0,55,0.00,,,0.00,weatherlink.com 1.10,2013-09-17 17:39:00,
2013-09-17 13:54:00,62.0,45.0,30.30,SSW,194,7.0,8.0,54,0.00,,,0.00,weatherlink.com 1.10,2013-09-17 17:54:00,
2013-09-17 14:09:00,62.2,44.0,30.29,WNW,290,3.0,9.0,51,0.00,,,0.00,weatherlink.com 1.10,2013-09-17 18:09:00,
2013-09-17 14:24:00,62.6,45.0,30.28,NW,323,4.0,7.0,52,0.00,,,0.00,weatherlink.com 1.10,2013-09-17 18:24:00,
2013-09-17 14:39:00,61.6,48.0,30.28,NNE,15,5.0,10.0,61,0.00,,,0.00,weatherlink.com 1.10,2013-09-17 18:39:00,
2013-09-17 14:54:00,60.5,48.0,30.27,NNW,335,7.0,11.0,63,0.01,,,0.01,weatherlink.com 1.10,2013-09-17 18:54:00,
2013-09-17 15:09:00,60.3,47.0,30.26,NW,321,6.0,10.0,62,0.01,,,0.01,weatherlink.com 1.10,2013-09-17 19:09:00,
2013-09-17 15:24:00,59.9,47.0,30.25,NNE,31,9.0,12.0,62,0.01,,,0.01,weatherlink.com 1.10,2013-09-17 19:24:00,
2013-09-17 15:39:00,60.6,48.0,30.25,North,351,4.0,11.0,63,0.00,,,0.01,weatherlink.com 1.10,2013-09-17 19:39:00,
2013-09-17 15:55:00,60.2,47.0,30.24,NNW,345,8.0,11.0,63,0.00,,,0.01,weatherlink.com 1.10,2013-09-17 19:55:00,
2013-09-17 16:10:00,60.3,47.0,30.23,North,355,6.0,11.0,61,0.01,,,0.02,weatherlink.com 1.10,2013-09-17 20:10:00,
2013-09-17 16:25:00,60.3,48.0,30.22,NNW,335,8.0,11.0,64,0.01,,,0.02,weatherlink.com 1.10,2013-09-17 20:25:00,
2013-09-17 16:40:00,60.3,48.0,30.22,NE,40,5.0,11.0,64,0.01,,,0.02,weatherlink.com 1.10,2013-09-17 20:40:00,
2013-09-17 16:55:00,60.6,48.0,30.21,NNW,344,6.0,9.0,63,0.01,,,0.02,weatherlink.com 1.10,2013-09-17 20:55:00,
2013-09-17 17:10:00,60.0,48.0,30.20,NNW,341,6.0,9.0,64,0.00,,,0.02,weatherlink.com 1.10,2013-09-17 21:10:00,
2013-09-17 17:25:00,60.7,47.0,30.20,North,5,4.0,8.0,62,0.00,,,0.02,weatherlink.com 1.10,2013-09-17 21:25:00,
2013-09-17 17:40:00,60.4,48.0,30.20,North,355,7.0,9.0,63,0.01,,,0.03,weatherlink.com 1.10,2013-09-17 21:40:00,
2013-09-17 17:55:00,60.1,48.0,30.19,NNW,337,5.0,7.0,65,0.01,,,0.03,weatherlink.com 1.10,2013-09-17 21:55:00,
2013-09-17 18:10:00,59.9,48.0,30.19,NNW,329,5.0,6.0,66,0.01,,,0.03,weatherlink.com 1.10,2013-09-17 22:10:00,
2013-09-17 18:25:00,59.8,48.0,30.18,NNW,338,5.0,6.0,65,0.02,,,0.04,weatherlink.com 1.10,2013-09-17 22:25:00,
2013-09-17 18:40:00,60.1,48.0,30.18,NNW,344,3.0,5.0,65,0.01,,,0.04,weatherlink.com 1.10,2013-09-17 22:40:00,
2013-09-17 18:55:00,60.3,49.0,30.17,NNW,344,1.0,4.0,66,0.01,,,0.04,weatherlink.com 1.10,2013-09-17 22:55:00,
2013-09-17 19:10:00,60.5,49.0,30.17,NNW,344,0.0,2.0,67,0.01,,,0.04,weatherlink.com 1.10,2013-09-17 23:10:00,
2013-09-17 19:25:00,59.4,50.0,30.16,NNW,344,0.0,0.0,70,0.00,,,0.04,weatherlink.com 1.10,2013-09-17 23:25:00,
2013-09-17 19:40:00,56.6,49.0,30.15,NNW,344,0.0,0.0,76,0.00,,,0.04,weatherlink.com 1.10,2013-09-17 23:40:00,
2013-09-17 19:55:00,55.4,49.0,30.15,NNW,344,0.0,0.0,78,0.01,,,0.05,weatherlink.com 1.10,2013-09-17 23:55:00,
2013-09-17 20:10:00,54.7,48.0,30.15,NNW,344,0.0,0.0,79,0.01,,,0.05,weatherlink.com 1.10,2013-09-18 00:10:00,
2013-09-17 20:25:00,52.8,49.0,30.14,NNW,345,0.0,0.0,86,0.01,,,0.05,weatherlink.com 1.10,2013-09-18 00:25:00,
2013-09-17 20:40:00,52.2,48.0,30.15,ESE,113,0.0,0.0,86,0.01,,,0.05,weatherlink.com 1.10,2013-09-18 00:40:00,
2013-09-17 20:55:00,53.0,48.0,30.15,ESE,113,0.0,0.0,84,0.00,,,0.05,weatherlink.com 1.10,2013-09-18 00:55:00,
2013-09-17 21:10:00,52.9,48.0,30.15,ESE,113,0.0,0.0,84,0.00,,,0.05,weatherlink.com 1.10,2013-09-18 01:10:00,
2013-09-17 21:25:00,51.4,47.0,30.15,ESE,113,0.0,0.0,85,0.01,,,0.06,weatherlink.com 1.10,2013-09-18 01:25:00,
2013-09-17 21:40:00,53.3,48.0,30.14,SE,146,0.0,0.0,83,0.01,,,0.06,weatherlink.com 1.10,2013-09-18 01:40:00,
2013-09-17 21:55:00,55.4,48.0,30.14,South,180,0.0,0.0,77,0.01,,,0.06,weatherlink.com 1.10,2013-09-18 01:55:00,
2013-09-17 22:10:00,55.6,48.0,30.14,South,185,0.0,0.0,75,0.01,,,0.06,weatherlink.com 1.10,2013-09-18 02:10:00,
2013-09-17 22:25:00,56.0,47.0,30.14,South,190,0.0,0.0,71,0.00,,,0.06,weatherlink.com 1.10,2013-09-18 02:25:00,
2013-09-17 22:40:00,54.7,47.0,30.14,SSW,202,0.0,0.0,74,0.00,,,0.06,weatherlink.com 1.10,2013-09-18 02:40:00,
2013-09-17 22:55:00,55.5,46.0,30.14,SSW,194,0.0,0.0,70,0.00,,,0.06,weatherlink.com 1.10,2013-09-18 02:55:00,
2013-09-17 23:10:00,54.9,46.0,30.14,SSW,210,0.0,0.0,71,0.00,,,0.06,weatherlink.com 1.10,2013-09-18 03:10:00,
2013-09-17 23:25:00,54.6,46.0,30.14,SSW,204,0.0,0.0,73,0.00,,,0.06,weatherlink.com 1.10,2013-09-18 03:25:00,
2013-09-17 23:40:00,54.4,46.0,30.13,SSW,201,0.0,0.0,74,0.00,,,0.06,weatherlink.com 1.10,2013-09-18 03:40:00,
2013-09-17 23:55:00,54.5,46.0,30.13,SSW,200,0.0,0.0,73,0.01,,,0.07,weatherlink.com 1.10,2013-09-18 03:55:00,